createdAt,value
2018-04-15T00:00:10.454Z,34.60
2018-04-15T00:02:46.659Z,34.70
2018-04-15T00:03:48.069Z,34.50
2018-04-15T00:05:52.637Z,34.40
2018-04-15T00:06:55.545Z,34.20
2018-04-15T00:07:56.981Z,34.40
2018-04-15T00:08:58.495Z,34.40
2018-04-15T00:09:59.933Z,34.70
2018-04-15T00:11:01.387Z,34.80
2018-04-15T00:12:02.822Z,34.80
2018-04-15T00:13:34.126Z,34.40
2018-04-15T00:17:54.877Z,34.40
2018-04-15T00:18:57.429Z,34.80
2018-04-15T00:19:58.861Z,34.80
2018-04-15T00:21:50.080Z,34.70
2018-04-15T00:22:51.535Z,34.90
2018-04-15T00:23:53.042Z,34.80
2018-04-15T00:24:54.768Z,34.20
2018-04-15T00:25:56.216Z,34.40
2018-04-15T00:26:57.650Z,34.30
2018-04-15T00:27:59.072Z,34.30
2018-04-15T00:29:00.530Z,34.20
2018-04-15T00:30:01.985Z,35.50
2018-04-15T00:31:03.427Z,34.20
2018-04-15T00:32:04.829Z,34.40
2018-04-15T00:33:06.229Z,33.70
2018-04-15T00:34:08.750Z,33.70
2018-04-15T00:35:10.172Z,33.80
2018-04-15T00:36:11.585Z,33.70
2018-04-15T00:37:14.102Z,33.50
2018-04-15T00:38:15.545Z,33.10
2018-04-15T00:39:16.965Z,33.30
2018-04-15T00:41:21.533Z,33.40
2018-04-15T00:42:23.681Z,33.20
2018-04-15T00:43:25.102Z,33.40
2018-04-15T00:44:26.528Z,33.40
2018-04-15T00:45:28.774Z,33.70
2018-04-15T00:46:30.220Z,33.30
2018-04-15T00:47:56.425Z,33.70
2018-04-15T00:48:58.626Z,33.50
2018-04-15T00:50:00.045Z,33.20
2018-04-15T00:51:02.237Z,33.30
2018-04-15T00:52:03.717Z,33.10
2018-04-15T00:53:05.129Z,33.10
2018-04-15T00:54:16.624Z,32.90
2018-04-15T00:56:21.163Z,32.90
2018-04-15T00:57:22.567Z,32.70
2018-04-15T00:58:24.018Z,32.70
2018-04-15T00:59:25.442Z,32.70
2018-04-15T01:00:26.845Z,33.00
2018-04-15T01:01:29.332Z,33.00
2018-04-15T01:02:31.487Z,32.90
2018-04-15T01:03:33.638Z,32.80
2018-04-15T01:04:35.064Z,31.90
2018-04-15T01:05:36.485Z,32.50
2018-04-15T01:06:37.896Z,32.50
2018-04-15T01:07:39.309Z,32.40
2018-04-15T01:08:40.704Z,32.50
2018-04-15T01:09:42.837Z,32.90
2018-04-15T01:10:44.241Z,32.50
2018-04-15T01:11:45.665Z,32.40
2018-04-15T01:14:12.832Z,32.40
2018-04-15T01:15:15.361Z,32.40
2018-04-15T01:16:16.859Z,32.50
2018-04-15T01:17:18.272Z,32.40
2018-04-15T01:18:20.415Z,32.00
2018-04-15T01:19:21.824Z,32.30
2018-04-15T01:21:10.337Z,31.90
2018-04-15T01:22:11.748Z,32.00
2018-04-15T01:23:13.177Z,31.30
2018-04-15T01:24:15.338Z,31.40
2018-04-15T01:25:16.828Z,31.50
2018-04-15T01:27:21.392Z,31.70
2018-04-15T01:28:23.069Z,31.80
2018-04-15T01:29:25.214Z,31.40
2018-04-15T01:30:26.605Z,31.40
2018-04-15T01:31:28.040Z,31.60
2018-04-15T01:32:29.724Z,31.30
2018-04-15T01:33:31.445Z,31.30
2018-04-15T01:40:11.777Z,31.40
2018-04-15T01:41:13.913Z,32.00
2018-04-15T01:42:15.381Z,31.30
2018-04-15T01:43:17.567Z,31.90
2018-04-15T01:44:20.472Z,31.30
2018-04-15T01:45:22.167Z,31.30
2018-04-15T01:46:23.576Z,31.20
2018-04-15T01:47:24.984Z,33.60
2018-04-15T01:48:26.384Z,31.50
2018-04-15T01:49:27.820Z,31.40
2018-04-15T01:50:29.554Z,31.20
2018-04-15T01:51:30.976Z,31.20
2018-04-15T01:52:32.421Z,31.20
2018-04-15T01:53:33.826Z,31.20
2018-04-15T01:54:35.247Z,31.30
2018-04-15T01:55:36.676Z,31.30
2018-04-15T01:56:38.084Z,31.30
2018-04-15T01:57:40.598Z,31.10
2018-04-15T01:58:42.024Z,31.30
2018-04-15T01:59:44.172Z,31.30
2018-04-15T02:00:45.885Z,31.30
2018-04-15T02:01:47.303Z,31.30
2018-04-15T02:02:48.702Z,31.30
2018-04-15T02:03:50.093Z,31.30
2018-04-15T02:04:51.517Z,31.30
2018-04-15T02:05:53.292Z,31.30
2018-04-15T02:06:54.685Z,31.30
2018-04-15T02:07:56.134Z,31.40
2018-04-15T02:08:57.574Z,31.40
2018-04-15T02:10:00.467Z,31.40
2018-04-15T02:11:02.269Z,31.40
2018-04-15T02:13:06.879Z,31.20
2018-04-15T02:14:08.285Z,31.20
2018-04-15T02:15:10.481Z,30.50
2018-04-15T02:16:12.293Z,30.80
2018-04-15T02:17:14.454Z,31.20
2018-04-15T02:18:16.590Z,31.50
2018-04-15T02:19:18.014Z,30.90
2018-04-15T02:20:20.189Z,30.20
2018-04-15T02:21:21.929Z,30.50
2018-04-15T02:22:23.379Z,30.50
2018-04-15T02:23:24.792Z,30.00
2018-04-15T02:24:26.212Z,30.10
2018-04-15T02:25:27.630Z,30.00
2018-04-15T02:26:29.090Z,30.00
2018-04-15T02:27:30.504Z,30.10
2018-04-15T02:28:32.694Z,30.30
2018-04-15T02:29:34.134Z,30.10
2018-04-15T02:30:36.270Z,30.20
2018-04-15T02:31:37.990Z,30.00
2018-04-15T02:32:39.427Z,30.00
2018-04-15T02:33:40.833Z,30.00
2018-04-15T02:34:42.255Z,30.10
2018-04-15T02:35:43.650Z,30.40
2018-04-15T02:36:45.830Z,30.90
2018-04-15T02:37:47.978Z,31.00
2018-04-15T02:38:51.097Z,30.60
2018-04-15T02:39:52.516Z,30.70
2018-04-15T02:40:53.926Z,30.60
2018-04-15T02:41:55.374Z,30.60
2018-04-15T02:42:56.785Z,30.70
2018-04-15T02:43:58.996Z,31.20
2018-04-15T02:45:00.440Z,31.00
2018-04-15T02:46:01.866Z,30.40
2018-04-15T02:48:06.429Z,30.20
2018-04-15T02:49:07.850Z,30.20
2018-04-15T02:50:10.350Z,30.20
2018-04-15T02:51:11.782Z,30.40
2018-04-15T02:52:14.242Z,30.70
2018-04-15T02:53:16.390Z,30.70
2018-04-15T02:54:17.804Z,30.30
2018-04-15T02:55:19.230Z,30.40
2018-04-15T02:56:20.646Z,30.20
2018-04-15T02:57:22.353Z,30.30
2018-04-15T02:58:23.770Z,30.50
2018-04-15T02:59:25.945Z,30.40
2018-04-15T03:00:28.114Z,31.10
2018-04-15T03:01:30.276Z,30.60
2018-04-15T03:02:32.448Z,31.60
2018-04-15T03:03:35.397Z,30.80
2018-04-15T03:04:36.859Z,30.70
2018-04-15T03:05:38.368Z,30.90
2018-04-15T03:06:39.792Z,30.90
2018-04-15T03:07:42.226Z,31.40
2018-04-15T03:09:46.880Z,31.40
2018-04-15T03:10:48.328Z,31.60
2018-04-15T03:11:49.772Z,31.40
2018-04-15T03:12:51.571Z,31.20
2018-04-15T03:13:53.749Z,31.10
2018-04-15T03:14:55.214Z,30.80
2018-04-15T03:15:56.734Z,31.00
2018-04-15T03:18:01.354Z,31.30
2018-04-15T03:19:02.810Z,31.10
2018-04-15T03:20:04.261Z,30.60
2018-04-15T03:21:05.734Z,30.00
2018-04-15T03:23:11.138Z,29.70
2018-04-15T03:24:12.554Z,30.00
2018-04-15T03:25:15.461Z,29.30
2018-04-15T03:26:16.947Z,29.60
2018-04-15T03:27:18.408Z,29.20
2018-04-15T03:28:19.845Z,29.20
2018-04-15T03:29:21.284Z,29.10
2018-04-15T03:30:22.757Z,28.60
2018-04-15T03:31:24.190Z,28.80
2018-04-15T03:32:25.629Z,28.90
2018-04-15T03:33:27.869Z,28.30
2018-04-15T03:34:30.563Z,28.30
2018-04-15T03:35:32.041Z,28.80
2018-04-15T03:36:33.482Z,28.80
2018-04-15T03:37:34.947Z,28.80
2018-04-15T03:38:36.781Z,28.90
2018-04-15T03:39:38.249Z,28.60
2018-04-15T03:40:41.169Z,28.30
2018-04-15T03:41:42.631Z,28.70
2018-04-15T03:42:44.144Z,28.50
2018-04-15T03:43:45.609Z,28.50
2018-04-15T03:44:47.028Z,28.20
2018-04-15T03:45:48.477Z,28.20
2018-04-15T03:46:49.934Z,28.60
2018-04-15T03:47:51.413Z,28.70
2018-04-15T03:48:53.130Z,28.90
2018-04-15T03:49:55.320Z,29.20
2018-04-15T03:50:56.809Z,29.00
2018-04-15T03:51:58.320Z,29.20
2018-04-15T03:52:59.847Z,29.20
2018-04-15T03:54:01.746Z,29.10
2018-04-15T03:55:03.304Z,29.30
2018-04-15T03:56:04.806Z,29.30
2018-04-15T03:57:07.018Z,29.50
2018-04-15T03:58:09.317Z,29.50
2018-04-15T03:59:11.126Z,29.20
2018-04-15T04:00:12.721Z,29.00
2018-04-15T04:01:14.302Z,28.80
2018-04-15T04:02:16.584Z,28.70
2018-04-15T04:03:19.198Z,28.20
2018-04-15T04:05:05.979Z,28.20
2018-04-15T04:06:07.998Z,28.20
2018-04-15T04:07:10.395Z,28.30
2018-04-15T04:08:11.993Z,28.40
2018-04-15T04:09:13.625Z,28.60
2018-04-15T04:10:15.581Z,29.00
2018-04-15T04:11:17.902Z,29.20
2018-04-15T04:12:19.537Z,28.60
2018-04-15T04:13:21.231Z,28.80
2018-04-15T04:14:50.683Z,28.90
2018-04-15T04:15:53.052Z,29.30
2018-04-15T04:16:55.571Z,28.90
2018-04-15T04:20:16.637Z,29.60
2018-04-15T04:21:37.761Z,29.60
2018-04-15T04:22:57.579Z,29.70
2018-04-15T04:26:03.762Z,29.30
2018-04-15T04:27:05.465Z,29.50
2018-04-15T04:28:07.288Z,29.70
2018-04-15T04:29:08.919Z,29.40
2018-04-15T04:30:10.454Z,29.30
2018-04-15T04:31:11.984Z,29.50
2018-04-15T04:32:13.697Z,29.60
2018-04-15T04:33:16.328Z,29.50
2018-04-15T04:34:17.966Z,29.20
2018-04-15T04:35:20.780Z,29.50
2018-04-15T04:36:22.393Z,29.50
2018-04-15T04:38:27.321Z,29.60
2018-04-15T04:39:29.920Z,29.50
2018-04-15T04:43:57.311Z,30.40
2018-04-15T04:44:59.973Z,31.00
2018-04-15T04:46:01.758Z,31.00
2018-04-15T04:49:02.228Z,30.60
2018-04-15T04:50:05.452Z,29.60
2018-04-15T04:51:07.069Z,29.90
2018-04-15T04:52:08.704Z,30.10
2018-04-15T04:53:10.657Z,30.50
2018-04-15T04:54:12.966Z,31.40
2018-04-15T04:56:07.787Z,32.00
2018-04-15T04:57:09.381Z,31.90
2018-04-15T04:58:11.364Z,32.30
2018-04-15T05:00:41.980Z,31.40
2018-04-15T05:01:44.362Z,31.10
2018-04-15T05:02:45.986Z,30.80
2018-04-15T05:03:47.652Z,30.70
2018-04-15T05:04:49.315Z,31.20
2018-04-15T05:07:45.939Z,30.70
2018-04-15T05:09:34.545Z,30.70
2018-04-15T05:10:36.344Z,30.60
2018-04-15T05:11:38.170Z,30.70
2018-04-15T05:12:39.745Z,30.70
2018-04-15T05:13:41.398Z,30.70
2018-04-15T05:14:43.066Z,30.70
2018-04-15T05:15:45.412Z,30.70
2018-04-15T05:16:46.960Z,30.70
2018-04-15T05:18:51.808Z,30.70
2018-04-15T05:19:54.176Z,32.60
2018-04-15T05:20:56.470Z,32.20
2018-04-15T05:21:58.054Z,31.50
2018-04-15T05:23:00.968Z,32.00
2018-04-15T05:25:06.113Z,30.80
2018-04-15T05:26:08.560Z,32.00
2018-04-15T05:27:10.174Z,30.90
2018-04-15T05:28:11.736Z,30.90
2018-04-15T05:29:13.314Z,30.90
2018-04-15T05:30:14.959Z,31.00
2018-04-15T05:31:17.326Z,32.50
2018-04-15T05:32:18.976Z,31.50
2018-04-15T05:34:23.814Z,31.20
2018-04-15T05:35:26.180Z,31.40
2018-04-15T05:36:28.836Z,32.20
2018-04-15T05:37:31.510Z,32.20
2018-04-15T05:38:33.340Z,31.70
2018-04-15T05:39:35.103Z,31.90
2018-04-15T05:40:38.338Z,31.80
2018-04-15T05:41:39.945Z,31.80
2018-04-15T05:42:41.510Z,31.50
2018-04-15T05:43:43.479Z,31.30
2018-04-15T05:44:45.090Z,31.20
2018-04-15T05:45:46.765Z,31.20
2018-04-15T05:46:48.355Z,31.30
2018-04-15T05:47:50.018Z,31.30
2018-04-15T05:48:51.614Z,31.40
2018-04-15T05:49:53.192Z,31.40
2018-04-15T05:50:54.752Z,31.50
2018-04-15T05:51:56.350Z,31.60
2018-04-15T05:52:58.244Z,31.80
2018-04-15T05:54:00.072Z,32.00
2018-04-15T05:55:02.556Z,31.70
2018-04-15T05:57:08.485Z,31.40
2018-04-15T05:58:10.894Z,31.40
2018-04-15T05:59:12.514Z,31.40
2018-04-15T06:00:14.097Z,31.40
2018-04-15T06:01:15.651Z,31.30
2018-04-15T06:02:17.284Z,31.50
2018-04-15T06:03:20.417Z,32.00
2018-04-15T06:05:07.711Z,32.50
2018-04-15T06:06:09.291Z,32.40
2018-04-15T06:07:58.815Z,31.70
2018-04-15T06:09:00.642Z,31.40
2018-04-15T06:10:02.320Z,32.30
2018-04-15T06:12:08.056Z,33.00
2018-04-15T06:13:10.467Z,33.40
2018-04-15T06:14:12.996Z,33.10
2018-04-15T06:15:14.708Z,32.80
2018-04-15T06:16:16.422Z,32.40
2018-04-15T06:17:18.108Z,32.50
2018-04-15T06:20:26.612Z,32.60
2018-04-15T06:22:32.865Z,32.90
2018-04-15T06:23:34.602Z,33.10
2018-04-15T06:24:37.097Z,33.40
2018-04-15T06:25:40.244Z,33.30
2018-04-15T06:28:43.198Z,32.90
2018-04-15T06:29:45.514Z,33.20
2018-04-15T06:30:47.299Z,32.20
2018-04-15T06:31:50.408Z,32.40
2018-04-15T06:32:52.070Z,32.10
2018-04-15T06:34:57.409Z,32.00
2018-04-15T06:35:59.138Z,32.00
2018-04-15T06:37:00.978Z,32.00
2018-04-15T06:38:02.731Z,32.10
2018-04-15T06:39:05.605Z,32.10
2018-04-15T06:41:08.190Z,32.10
2018-04-15T06:42:11.325Z,32.10
2018-04-15T06:43:12.960Z,32.20
2018-04-15T06:44:15.296Z,32.70
2018-04-15T06:45:16.909Z,32.20
2018-04-15T06:46:18.519Z,32.20
2018-04-15T06:47:20.153Z,32.90
2018-04-15T06:48:21.854Z,33.30
2018-04-15T06:49:23.624Z,33.00
2018-04-15T06:50:25.337Z,32.50
2018-04-15T06:51:27.007Z,32.40
2018-04-15T06:52:28.857Z,32.40
2018-04-15T06:53:30.521Z,32.90
2018-04-15T06:54:33.743Z,33.00
2018-04-15T06:55:35.453Z,32.50
2018-04-15T06:56:37.144Z,32.50
2018-04-15T06:57:40.333Z,32.10
2018-04-15T06:59:45.251Z,32.50
2018-04-15T07:00:46.866Z,32.40
2018-04-15T07:03:54.893Z,31.50
2018-04-15T07:04:57.848Z,30.60
2018-04-15T07:06:00.357Z,30.50
2018-04-15T07:07:02.841Z,30.90
2018-04-15T07:08:05.327Z,30.00
2018-04-15T07:09:07.023Z,30.50
2018-04-15T07:10:08.625Z,30.30
2018-04-15T07:11:09.977Z,30.10
2018-04-15T07:14:11.459Z,30.10
2018-04-15T07:18:28.592Z,30.30
2018-04-15T07:19:30.326Z,30.80
2018-04-15T07:20:32.148Z,30.30
2018-04-15T07:21:33.818Z,30.00
2018-04-15T07:22:35.547Z,29.10
2018-04-15T07:23:37.297Z,29.40
2018-04-15T07:24:38.921Z,29.70
2018-04-15T07:26:19.375Z,29.60
2018-04-15T07:27:21.660Z,29.20
2018-04-15T07:28:23.233Z,29.60
2018-04-15T07:29:24.831Z,29.40
2018-04-15T07:37:58.059Z,31.00
2018-04-15T07:38:59.971Z,30.90
2018-04-15T07:40:03.338Z,32.00
2018-04-15T07:41:05.144Z,31.40
2018-04-15T07:42:47.923Z,31.90
2018-04-15T07:45:55.599Z,31.30
2018-04-15T07:46:57.177Z,31.10
2018-04-15T07:48:00.363Z,31.20
2018-04-15T07:49:02.202Z,31.60
2018-04-15T07:50:03.948Z,31.70
2018-04-15T07:51:05.686Z,31.70
2018-04-15T07:52:07.483Z,31.60
2018-04-15T07:53:09.188Z,31.80
2018-04-15T07:54:10.827Z,32.70
2018-04-15T07:55:12.447Z,32.80
2018-04-15T07:56:14.034Z,33.20
2018-04-15T07:57:15.622Z,32.80
2018-04-15T07:58:17.222Z,33.00
2018-04-15T08:00:22.432Z,33.00
2018-04-15T08:01:24.010Z,31.90
2018-04-15T08:02:26.806Z,31.30
2018-04-15T08:03:29.408Z,30.80
2018-04-15T08:04:31.224Z,30.90
2018-04-15T08:05:33.136Z,31.40
2018-04-15T08:06:35.000Z,32.10
2018-04-15T08:07:36.858Z,33.00
2018-04-15T08:10:17.064Z,33.60
2018-04-15T08:16:20.406Z,34.30
2018-04-15T08:19:46.108Z,34.10
2018-04-15T08:20:48.535Z,34.60
2018-04-15T08:21:51.242Z,35.00
2018-04-15T08:22:52.846Z,34.50
2018-04-15T08:24:57.715Z,34.80
2018-04-15T08:28:28.054Z,34.70
2018-04-15T08:29:30.521Z,34.70
2018-04-15T08:31:35.286Z,34.50
2018-04-15T08:36:58.907Z,34.10
2018-04-15T08:42:12.778Z,34.00
2018-04-15T08:44:17.306Z,34.00
2018-04-15T08:46:23.497Z,34.40
2018-04-15T08:48:28.377Z,34.20
2018-04-15T08:51:37.043Z,35.00
2018-04-15T08:53:41.970Z,34.60
2018-04-15T08:55:47.768Z,35.70
2018-04-15T08:56:50.505Z,35.30
2018-04-15T08:57:53.625Z,35.00
2018-04-15T09:01:03.006Z,35.60
2018-04-15T09:02:04.654Z,35.40
2018-04-15T09:03:07.812Z,35.60
2018-04-15T09:06:16.475Z,35.10
2018-04-15T09:08:21.561Z,34.70
2018-04-15T09:09:23.289Z,34.80
2018-04-15T09:11:28.569Z,34.90
2018-04-15T09:12:30.614Z,35.20
2018-04-15T09:13:33.805Z,35.40
2018-04-15T09:16:42.710Z,35.40
2018-04-15T09:18:47.825Z,35.80
2018-04-15T09:20:17.364Z,35.60
2018-04-15T09:22:23.827Z,35.70
2018-04-15T09:23:25.749Z,35.50
2018-04-15T09:27:37.701Z,35.60
2018-04-15T09:28:40.751Z,36.00
2018-04-15T09:32:30.483Z,35.40
2018-04-15T09:33:32.933Z,35.70
2018-04-15T09:35:37.976Z,35.70
2018-04-15T09:36:39.626Z,35.60
2018-04-15T09:38:45.315Z,36.50
2018-04-15T09:42:12.653Z,35.80
2018-04-15T09:43:15.762Z,35.80
2018-04-15T09:44:17.581Z,35.60
2018-04-15T09:45:19.223Z,35.60
2018-04-15T09:46:20.853Z,35.60
2018-04-15T09:47:22.448Z,35.90
2018-04-15T09:49:29.733Z,36.00
2018-04-15T09:50:31.466Z,35.80
2018-04-15T09:51:33.949Z,35.90
2018-04-15T09:53:38.984Z,36.00
2018-04-15T09:56:47.468Z,35.90
2018-04-15T09:58:52.361Z,36.30
2018-04-15T10:04:11.058Z,36.20
2018-04-15T10:05:13.583Z,36.60
2018-04-15T10:06:15.713Z,36.50
2018-04-15T10:08:21.682Z,36.80
2018-04-15T10:10:27.720Z,37.50
2018-04-15T10:11:30.604Z,36.50
2018-04-15T10:12:32.025Z,36.30
2018-04-15T10:13:33.405Z,36.10
2018-04-15T10:16:41.552Z,36.40
2018-04-15T10:17:43.265Z,36.50
2018-04-15T10:18:45.036Z,36.80
2018-04-15T10:19:47.775Z,36.40
2018-04-15T10:20:50.882Z,36.30
2018-04-15T10:21:52.406Z,36.20
2018-04-15T10:23:58.977Z,36.10
2018-04-15T10:25:00.644Z,36.10
2018-04-15T10:26:03.839Z,36.00
2018-04-15T10:27:05.566Z,36.10
2018-04-15T10:38:24.479Z,35.10
2018-04-15T10:39:26.953Z,35.20
2018-04-15T10:42:36.505Z,35.40
2018-04-15T10:45:22.572Z,36.00
2018-04-15T10:47:59.419Z,35.50
2018-04-15T10:50:20.894Z,36.40
2018-04-15T10:51:22.479Z,36.20
2018-04-15T10:53:30.290Z,35.70
2018-04-15T10:55:35.000Z,35.20
2018-04-15T10:59:46.786Z,35.30
2018-04-15T11:03:13.064Z,35.00
2018-04-15T11:08:28.455Z,35.20
2018-04-15T11:09:30.256Z,35.30
2018-04-15T11:10:32.126Z,35.30
2018-04-15T11:12:37.180Z,34.40
2018-04-15T11:13:38.840Z,34.60
2018-04-15T11:14:40.420Z,34.70
2018-04-15T11:35:35.236Z,34.60
2018-04-15T11:36:36.896Z,34.60
2018-04-15T11:37:38.606Z,34.30
2018-04-15T11:38:40.233Z,34.50
2018-04-15T11:40:45.169Z,34.70
2018-04-15T11:41:46.823Z,34.40
2018-04-15T11:42:48.473Z,34.40
2018-04-15T11:45:56.808Z,34.70
2018-04-15T11:46:59.270Z,34.60
2018-04-15T11:50:07.648Z,34.40
2018-04-15T11:53:15.771Z,34.20
2018-04-15T11:55:21.841Z,35.00
2018-04-15T11:57:28.027Z,34.80
2018-04-15T11:58:29.753Z,34.50
2018-04-15T12:00:35.273Z,34.80
2018-04-15T12:01:37.001Z,34.60
2018-04-15T12:02:40.095Z,34.40
2018-04-15T12:03:43.152Z,34.70
2018-04-15T12:04:44.682Z,34.60
2018-04-15T12:05:46.278Z,34.40
2018-04-15T12:06:47.859Z,34.20
2018-04-15T12:07:49.398Z,34.10
2018-04-15T12:10:58.288Z,34.50
2018-04-15T12:12:00.438Z,34.60
2018-04-15T12:13:03.147Z,34.30
2018-04-15T12:14:04.899Z,34.30
2018-04-15T12:15:07.428Z,34.50
2018-04-15T12:16:09.969Z,34.90
2018-04-15T12:17:12.190Z,34.70
2018-04-15T12:18:13.607Z,34.60
2018-04-15T12:19:16.129Z,34.80
2018-04-15T12:21:20.715Z,34.50
2018-04-15T12:22:22.133Z,34.30
2018-04-15T12:23:23.560Z,34.40
2018-04-15T12:24:26.116Z,34.70
2018-04-15T12:25:27.536Z,34.70
2018-04-15T12:29:23.242Z,34.40
2018-04-15T12:30:24.875Z,34.60
2018-04-15T12:31:27.220Z,34.80
2018-04-15T12:32:29.586Z,34.60
2018-04-15T12:33:31.403Z,34.40
2018-04-15T12:36:45.126Z,34.80
2018-04-15T12:37:46.719Z,34.80
2018-04-15T12:39:51.578Z,34.60
2018-04-15T12:40:53.191Z,34.80
2018-04-15T12:41:54.739Z,34.80
2018-04-15T12:47:11.155Z,34.90
2018-04-15T12:48:12.749Z,34.90
2018-04-15T12:51:20.829Z,35.00
2018-04-15T12:52:23.147Z,35.40
2018-04-15T13:06:00.967Z,35.10
2018-04-15T13:10:52.301Z,35.20
2018-04-15T13:11:53.927Z,35.30
2018-04-15T13:15:02.355Z,35.30
2018-04-15T13:16:04.115Z,35.60
2018-04-15T13:17:05.769Z,35.70
2018-04-15T13:20:14.086Z,35.70
2018-04-15T13:23:23.457Z,36.00
2018-04-15T13:24:25.027Z,35.80
2018-04-15T13:25:27.439Z,36.00
2018-04-15T13:27:32.631Z,36.10
2018-04-15T13:35:58.450Z,35.70
2018-04-15T13:46:29.461Z,35.90
2018-04-15T13:47:31.650Z,35.90
2018-04-15T13:48:33.093Z,35.90
2018-04-15T13:51:41.193Z,36.00
2018-04-15T13:54:49.105Z,36.00
2018-04-15T13:55:50.695Z,36.00
2018-04-15T13:56:52.267Z,36.10
2018-04-15T13:58:57.392Z,36.10
2018-04-15T13:59:59.145Z,36.10
2018-04-15T14:03:07.624Z,36.10
2018-04-15T14:04:11.085Z,36.00
2018-04-15T14:07:19.365Z,35.90
2018-04-15T14:08:21.662Z,35.60
2018-04-15T14:10:40.298Z,35.80
2018-04-15T14:11:42.670Z,36.00
2018-04-15T14:15:36.275Z,35.70
2018-04-15T14:17:41.289Z,35.90
2018-04-15T14:19:46.445Z,35.80
2018-04-15T14:21:51.509Z,36.00
2018-04-15T14:25:00.111Z,35.90
2018-04-15T14:26:01.874Z,36.00
2018-04-15T14:28:06.923Z,36.10
2018-04-15T14:31:09.570Z,36.40
2018-04-15T14:33:15.023Z,36.10
2018-04-15T14:34:16.965Z,36.20
2018-04-15T14:35:18.725Z,36.10
2018-04-15T14:37:26.021Z,36.90
2018-04-15T14:38:28.035Z,36.60
2018-04-15T14:40:52.655Z,36.50
2018-04-15T14:42:58.975Z,36.60
2018-04-15T14:44:00.667Z,36.50
2018-04-15T14:45:02.446Z,37.30
2018-04-15T14:47:07.460Z,37.40
2018-04-15T14:50:15.911Z,37.30
2018-04-15T14:51:17.573Z,37.30
2018-04-15T14:52:21.955Z,37.10
2018-04-15T14:59:13.995Z,37.40
2018-04-15T15:09:05.572Z,37.00
2018-04-15T15:12:13.981Z,37.20
2018-04-15T15:13:15.618Z,37.00
2018-04-15T15:21:42.067Z,37.20
2018-04-15T15:22:44.972Z,37.50
2018-04-15T15:23:46.825Z,37.30
2018-04-15T15:25:52.023Z,37.50
2018-04-15T15:26:54.065Z,37.40
2018-04-15T15:31:05.839Z,37.90
2018-04-15T15:32:07.585Z,37.90
2018-04-15T15:35:16.005Z,37.40
2018-04-15T15:37:21.191Z,37.80
2018-04-15T15:40:47.788Z,37.40
2018-04-15T15:41:49.518Z,37.50
2018-04-15T15:43:56.069Z,37.30
2018-04-15T15:46:01.167Z,37.70
2018-04-15T15:54:26.609Z,37.30
2018-04-15T15:56:31.781Z,37.30
2018-04-15T16:00:43.561Z,37.90
2018-04-15T16:02:50.174Z,37.90
2018-04-15T16:03:51.910Z,37.90
2018-04-15T16:04:53.641Z,37.90
2018-04-15T16:09:05.367Z,37.90
2018-04-15T16:10:07.085Z,38.00
2018-04-15T16:11:08.810Z,37.90
2018-04-15T16:12:11.271Z,37.90
2018-04-15T16:13:13.025Z,38.00
2018-04-15T16:14:14.757Z,37.90
2018-04-15T16:16:21.320Z,37.90
2018-04-15T16:19:30.099Z,38.00
2018-04-15T16:20:33.272Z,37.90
2018-04-15T16:22:38.231Z,38.40
2018-04-15T16:26:50.279Z,37.90
2018-04-15T16:29:11.543Z,37.90
2018-04-15T16:30:13.123Z,37.60
2018-04-15T16:31:33.001Z,37.40
2018-04-15T16:32:36.127Z,37.40
2018-04-15T16:33:37.789Z,37.40
2018-04-15T16:35:42.665Z,37.40
2018-04-15T16:36:45.375Z,37.60
2018-04-15T16:38:51.243Z,37.80
2018-04-15T16:40:55.994Z,37.80
2018-04-15T16:44:05.279Z,37.80
2018-04-15T16:45:06.845Z,37.80
2018-04-15T16:46:08.704Z,37.80
2018-04-15T16:47:10.319Z,37.70
2018-04-15T16:50:18.335Z,37.70
2018-04-15T16:51:19.880Z,37.70
2018-04-15T16:53:26.129Z,38.40
2018-04-15T16:55:31.039Z,38.30
2018-04-15T16:57:37.301Z,38.60
2018-04-15T16:58:38.828Z,38.40
2018-04-15T17:00:43.515Z,38.70
2018-04-15T17:02:48.240Z,38.80
2018-04-15T17:04:53.037Z,38.90
2018-04-15T17:05:54.573Z,39.00
2018-04-15T17:10:08.218Z,39.40
2018-04-15T17:14:51.912Z,40.10
2018-04-15T17:15:53.440Z,39.90
2018-04-15T17:16:54.989Z,39.70
2018-04-15T17:19:00.743Z,39.70
2018-04-15T17:20:02.400Z,39.90
2018-04-15T17:25:16.914Z,40.10
2018-04-15T17:27:21.654Z,40.20
2018-04-15T17:28:23.216Z,40.40
2018-04-15T17:30:28.138Z,40.60
2018-04-15T17:33:54.413Z,41.20
2018-04-15T17:46:06.949Z,40.90
2018-04-15T17:48:11.608Z,40.90
2018-04-15T17:53:44.861Z,41.00
2018-04-15T17:55:50.294Z,40.90
2018-04-15T17:57:55.264Z,41.10
2018-04-15T17:58:56.770Z,41.10
2018-04-15T17:59:58.368Z,41.20
2018-04-15T18:01:01.465Z,41.50
2018-04-15T18:05:12.759Z,41.00
2018-04-15T18:06:14.266Z,41.00
2018-04-15T18:09:23.243Z,40.80
2018-04-15T18:10:24.788Z,40.70
2018-04-15T18:12:29.507Z,40.70
2018-04-15T18:13:31.066Z,40.60
2018-04-15T18:14:33.298Z,40.70
2018-04-15T18:15:34.821Z,40.60
2018-04-15T18:17:39.440Z,40.80
2018-04-15T18:18:42.384Z,40.70
2018-04-15T18:19:45.326Z,40.70
2018-04-15T18:20:48.280Z,40.70
2018-04-15T18:21:49.793Z,40.40
2018-04-15T18:22:52.345Z,35.60
2018-04-15T18:27:03.338Z,33.00
2018-04-15T18:28:04.885Z,34.30
2018-04-15T18:29:06.268Z,33.20
2018-04-15T18:31:10.824Z,32.90
2018-04-15T18:32:12.285Z,33.80
2018-04-15T18:33:13.719Z,33.30
2018-04-15T18:35:18.303Z,32.30
2018-04-15T18:36:19.738Z,33.10
2018-04-15T18:40:37.505Z,32.70
2018-04-15T18:43:46.249Z,32.00
2018-04-15T18:47:57.125Z,32.80
2018-04-15T18:50:01.783Z,32.90
2018-04-15T18:51:03.257Z,32.50
2018-04-15T18:52:04.665Z,33.00
2018-04-15T18:53:06.102Z,32.30
2018-04-15T18:55:12.258Z,31.70
2018-04-15T18:56:15.198Z,31.40
2018-04-15T18:57:16.651Z,32.20
2018-04-15T18:58:18.121Z,32.10
2018-04-15T19:03:27.898Z,34.10
2018-04-15T19:04:29.378Z,34.90
2018-04-15T19:05:30.872Z,36.00
2018-04-15T19:07:36.186Z,36.30
2018-04-15T19:08:38.338Z,36.40
2018-04-15T19:09:39.744Z,36.30
2018-04-15T19:10:42.301Z,36.10
2018-04-15T19:11:44.469Z,36.30
2018-04-15T19:12:45.905Z,36.30
2018-04-15T19:13:47.307Z,35.90
2018-04-15T19:15:51.925Z,33.90
2018-04-15T19:16:54.777Z,31.90
2018-04-15T19:17:57.316Z,32.40
2018-04-15T19:19:00.223Z,32.00
2018-04-15T19:20:01.696Z,32.70
2018-04-15T19:21:03.134Z,32.50
2018-04-15T19:22:04.635Z,32.20
2018-04-15T19:24:10.301Z,32.40
2018-04-15T19:25:13.222Z,32.30
2018-04-15T19:26:14.678Z,32.60
2018-04-15T19:27:16.391Z,33.40
2018-04-15T19:29:20.932Z,34.90
2018-04-15T19:30:23.489Z,33.50
2018-04-15T19:31:24.919Z,33.60
2018-04-15T19:32:26.376Z,33.60
2018-04-15T19:33:27.809Z,33.30
2018-04-15T19:34:30.432Z,32.60
2018-04-15T19:35:31.836Z,32.90
2018-04-15T19:36:33.317Z,32.30
2018-04-15T19:37:34.782Z,33.40
2018-04-15T19:38:36.240Z,33.60
2018-04-15T19:39:37.657Z,33.40
2018-04-15T19:40:39.078Z,32.80
2018-04-15T19:41:41.259Z,32.10
2018-04-15T19:42:43.446Z,32.00
2018-04-15T19:43:44.894Z,32.60
2018-04-15T19:44:46.357Z,33.00
2018-04-15T19:45:47.806Z,34.60
2018-04-15T19:46:50.029Z,36.20
2018-04-15T19:47:51.486Z,36.70
2018-04-15T19:48:52.990Z,36.20
2018-04-15T19:49:54.429Z,36.20
2018-04-15T19:50:55.896Z,34.90
2018-04-15T19:51:57.444Z,33.40
2018-04-15T19:52:58.900Z,32.40
2018-04-15T19:54:00.348Z,32.90
2018-04-15T19:55:01.798Z,32.90
2018-04-15T19:56:03.304Z,32.80
2018-04-15T19:57:05.496Z,31.90
2018-04-15T19:58:06.923Z,32.50
2018-04-15T19:59:08.371Z,33.00
2018-04-15T20:00:09.790Z,32.90
2018-04-15T20:02:15.881Z,32.60
2018-04-15T20:03:17.366Z,32.50
2018-04-15T20:04:19.539Z,32.40
2018-04-15T20:05:20.992Z,32.80
2018-04-15T20:07:25.554Z,34.60
2018-04-15T20:08:27.097Z,34.90
2018-04-15T20:09:28.546Z,34.90
2018-04-15T20:10:29.976Z,36.10
2018-04-15T20:11:31.414Z,36.10
2018-04-15T20:12:32.860Z,36.70
2018-04-15T20:13:35.072Z,37.50
2018-04-15T20:14:36.536Z,37.10
2018-04-15T20:15:37.994Z,37.40
2018-04-15T20:16:39.415Z,37.60
2018-04-15T20:17:41.581Z,38.40
2018-04-15T20:18:43.062Z,38.10
2018-04-15T20:19:44.533Z,38.20
2018-04-15T20:20:46.722Z,39.20
2018-04-15T20:21:48.182Z,38.00
2018-04-15T20:22:49.612Z,39.50
2018-04-15T20:23:51.822Z,40.20
2018-04-15T20:24:53.234Z,39.30
2018-04-15T20:25:55.410Z,40.10
2018-04-15T20:26:58.424Z,39.60
2018-04-15T20:27:59.844Z,39.10
2018-04-15T20:29:02.717Z,39.50